Historique des mesures à Cassis (13260), France
Quotidien Résumé Mai 11, 2017 Unités:  US    Métrique   Métrique/US
« Précédent (Jour)
Suivant (Jour) »
Quotidien Hebdomadaire Mensuel Annuel Période au choix
  Maximum: Minimum: Moyenne:
Température: 32 °F 60.6 °F 61.7 °F
Point de rosée: 32 °F 49.3 °F 52.3 °F
Humidité: Humidity % 63 % 68 %
Vitesse du vent: WindSpeedKMH mph 0.0 mph 5.1 mph
Rafales: WindSpeedGustKMH mph - -
Vent:- - SE
Pression: 0 in 29.5 in -
Précipitations: 12.7 in    
Historical Graphs
 
 
Mesures pour : Mai 11, 2017
Heure Temperature Point de rosée Pression Vent Vitesse du vent Rafales Humidité Pluie (par heure) Conditions
32 °F 32 °F 0 in Calm     Humidity % 0 in SoftwareType W/m2
00:10 62.2 °F 50.7 °F 29.6 in Calm   1.4 mph 66 % 0 in open2300-1.11 W/m2
01:10 61 °F 49.3 °F 29.6 in Calm   4.7 mph 65 % 0 in open2300-1.11 W/m2
02:10 60.6 °F 49.3 °F 29.6 in Calm   3.2 mph 66 % 0 in open2300-1.11 W/m2
03:10 61.7 °F 49.8 °F 29.6 in SE 3.5 mph 3.5 mph 65 % 0 in open2300-1.11 W/m2
04:10 62.1 °F 49.3 °F 29.6 in SE 3.2 mph 18.3 mph 63 % 0 in open2300-1.11 W/m2
05:10 62.2 °F 49.5 °F 29.5 in ESE 4.3 mph 5.0 mph 63 % 0 in open2300-1.11 W/m2
06:10 61.7 °F 50.7 °F 29.5 in SSE 6.1 mph 8.2 mph 67 % 0 in open2300-1.11 W/m2
07:10 61.5 °F 51.3 °F 29.5 in ESE 3.5 mph 11.9 mph 69 % 0 in open2300-1.11 W/m2
08:10 64 °F 53.2 °F 29.5 in SE 5.8 mph 10.8 mph 68 % 0 in open2300-1.11 W/m2
09:10 64.2 °F 52.5 °F 29.5 in ENE 13.7 mph 21.6 mph 66 % 0 in open2300-1.11 W/m2
10:10 66 °F 53.4 °F 29.5 in SSE 14.0 mph 24.5 mph 64 % 0 in open2300-1.11 W/m2
11:10 66.6 °F 54.3 °F 29.5 in SE 5.8 mph 10.1 mph 65 % 0 in open2300-1.11 W/m2
12:10 65.1 °F 54 °F 29.5 in SE 11.6 mph 17.2 mph 67 % 0 in open2300-1.11 W/m2
13:10 64.9 °F 55 °F 29.5 in ESE 10.5 mph 10.5 mph 70 % 0 in open2300-1.11 W/m2
14:10 64.9 °F 55 °F 29.5 in SE 6.1 mph 10.1 mph 70 % 0 in open2300-1.11 W/m2
15:10 63 °F 54.9 °F 29.5 in SE 17.2 mph 17.2 mph 75 % 0 in open2300-1.11 W/m2
16:10 61.5 °F 55 °F 29.5 in South 8.2 mph 9.0 mph 79 % 0 in open2300-1.11 W/m2
17:10 61.9 °F 55.8 °F 29.5 in SE 1.1 mph 18.0 mph 80 % 12.7 in open2300-1.11 W/m2
18:11 62.2 °F 55.6 °F 29.5 in SSE 6.1 mph 6.1 mph 79 % 0 in open2300-1.11 W/m2
19:10 62.8 °F 56.1 °F 29.5 in Calm   8.2 mph 79 % 0 in open2300-1.11 W/m2
20:11 62.8 °F 55.8 °F 29.5 in Calm     78 % 0 in open2300-1.11 W/m2
21:10 62.4 °F 55.8 °F 29.5 in ESE 2.1 mph 2.1 mph 79 % 0 in open2300-1.11 W/m2
22:10 61.9 °F 55.2 °F 29.6 in SE 4.0 mph 4.7 mph 79 % 0 in open2300-1.11 W/m2
23:10 61.3 °F 55.2 °F 29.6 in Calm     80 % 0 in open2300-1.11 W/m2
Observations météo à CASSIS
WU-History script by Weather Underground - 1 mb